sensor_id;sensor_type;location;lat;lon;timestamp;pressure;altitude;pressure_sealevel;temperature;humidity
10946;BME280;5525;42.648;23.368;2023-07-29T00:01:01;94520.00;;;18.31;100.00
10946;BME280;5525;42.648;23.368;2023-07-29T00:03:27;94515.72;;;18.33;100.00
10946;BME280;5525;42.648;23.368;2023-07-29T00:05:55;94519.88;;;18.20;100.00
10946;BME280;5525;42.648;23.368;2023-07-29T00:08:22;94519.31;;;18.04;100.00
10946;BME280;5525;42.648;23.368;2023-07-29T00:10:50;94527.06;;;17.66;100.00
10946;BME280;5525;42.648;23.368;2023-07-29T00:13:17;94529.91;;;17.76;100.00
10946;BME280;5525;42.648;23.368;2023-07-29T00:15:44;94524.06;;;17.78;100.00
10946;BME280;5525;42.648;23.368;2023-07-29T00:18:10;94527.66;;;17.82;100.00
10946;BME280;5525;42.648;23.368;2023-07-29T00:20:37;94529.91;;;17.76;100.00
10946;BME280;5525;42.648;23.368;2023-07-29T00:23:04;94518.88;;;17.40;100.00
10946;BME280;5525;42.648;23.368;2023-07-29T00:25:30;94528.66;;;17.15;100.00
10946;BME280;5525;42.648;23.368;2023-07-29T00:27:58;94524.59;;;17.02;100.00
10946;BME280;5525;42.648;23.368;2023-07-29T00:30:25;94527.41;;;17.09;100.00
10946;BME280;5525;42.648;23.368;2023-07-29T00:32:51;94530.88;;;17.06;100.00
10946;BME280;5525;42.648;23.368;2023-07-29T00:35:18;94515.13;;;17.22;100.00
10946;BME280;5525;42.648;23.368;2023-07-29T00:37:45;94522.53;;;17.21;100.00
10946;BME280;5525;42.648;23.368;2023-07-29T00:40:15;94530.56;;;17.11;100.00
10946;BME280;5525;42.648;23.368;2023-07-29T00:42:42;94525.94;;;17.15;100.00
10946;BME280;5525;42.648;23.368;2023-07-29T00:45:10;94515.13;;;17.22;100.00
10946;BME280;5525;42.648;23.368;2023-07-29T00:47:37;94513.66;;;17.28;100.00
10946;BME280;5525;42.648;23.368;2023-07-29T00:50:05;94511.50;;;17.40;100.00
10946;BME280;5525;42.648;23.368;2023-07-29T00:52:33;94508.44;;;17.45;100.00
10946;BME280;5525;42.648;23.368;2023-07-29T00:54:59;94513.16;;;17.45;100.00
10946;BME280;5525;42.648;23.368;2023-07-29T00:57:27;94509.09;;;17.35;100.00
10946;BME280;5525;42.648;23.368;2023-07-29T00:59:54;94512.13;;;17.30;100.00
10946;BME280;5525;42.648;23.368;2023-07-29T01:02:22;94513.59;;;17.24;100.00
10946;BME280;5525;42.648;23.368;2023-07-29T01:04:52;94511.56;;;17.18;100.00
10946;BME280;5525;42.648;23.368;2023-07-29T01:07:25;94509.91;;;16.83;100.00
10946;BME280;5525;42.648;23.368;2023-07-29T01:10:00;94507.78;;;16.73;100.00
10946;BME280;5525;42.648;23.368;2023-07-29T01:12:36;94506.91;;;16.92;100.00
10946;BME280;5525;42.648;23.368;2023-07-29T01:15:11;94507.69;;;16.93;100.00
10946;BME280;5525;42.648;23.368;2023-07-29T01:17:43;94509.22;;;16.90;100.00
10946;BME280;5525;42.648;23.368;2023-07-29T01:20:14;94513.91;;;16.90;100.00
10946;BME280;5525;42.648;23.368;2023-07-29T01:22:42;94514.19;;;16.84;100.00
10946;BME280;5525;42.648;23.368;2023-07-29T01:25:10;94512.47;;;16.99;100.00
10946;BME280;5525;42.648;23.368;2023-07-29T01:27:37;94510.66;;;17.07;100.00
10946;BME280;5525;42.648;23.368;2023-07-29T01:30:05;94509.56;;;17.15;100.00
10946;BME280;5525;42.648;23.368;2023-07-29T01:32:37;94515.09;;;17.18;100.00
10946;BME280;5525;42.648;23.368;2023-07-29T01:35:15;94514.19;;;17.11;100.00
10946;BME280;5525;42.648;23.368;2023-07-29T01:37:48;94508.78;;;17.14;100.00
10946;BME280;5525;42.648;23.368;2023-07-29T01:40:17;94508.22;;;17.02;100.00
10946;BME280;5525;42.648;23.368;2023-07-29T01:42:44;94506.97;;;16.96;100.00
10946;BME280;5525;42.648;23.368;2023-07-29T01:45:11;94499.75;;;16.84;100.00
10946;BME280;5525;42.648;23.368;2023-07-29T01:47:38;94508.31;;;16.82;100.00
10946;BME280;5525;42.648;23.368;2023-07-29T01:50:07;94505.66;;;16.86;100.00
10946;BME280;5525;42.648;23.368;2023-07-29T01:52:34;94511.25;;;16.70;100.00
10946;BME280;5525;42.648;23.368;2023-07-29T01:55:01;94510.81;;;16.68;100.00
10946;BME280;5525;42.648;23.368;2023-07-29T01:57:29;94513.53;;;16.68;100.00
10946;BME280;5525;42.648;23.368;2023-07-29T01:59:55;94508.94;;;16.72;100.00
10946;BME280;5525;42.648;23.368;2023-07-29T02:02:22;94509.03;;;16.79;100.00
10946;BME280;5525;42.648;23.368;2023-07-29T02:04:49;94506.69;;;16.78;100.00
10946;BME280;5525;42.648;23.368;2023-07-29T02:07:17;94516.91;;;16.58;100.00
10946;BME280;5525;42.648;23.368;2023-07-29T02:09:44;94511.16;;;16.63;100.00
10946;BME280;5525;42.648;23.368;2023-07-29T02:12:10;94515.53;;;16.71;100.00
10946;BME280;5525;42.648;23.368;2023-07-29T02:14:38;94519.31;;;16.63;100.00
10946;BME280;5525;42.648;23.368;2023-07-29T02:17:05;94516.16;;;16.61;100.00
10946;BME280;5525;42.648;23.368;2023-07-29T02:19:32;94514.72;;;16.67;100.00
10946;BME280;5525;42.648;23.368;2023-07-29T02:21:58;94526.22;;;16.80;100.00
10946;BME280;5525;42.648;23.368;2023-07-29T02:24:25;94519.13;;;17.02;100.00
10946;BME280;5525;42.648;23.368;2023-07-29T02:26:52;94525.09;;;17.11;100.00
10946;BME280;5525;42.648;23.368;2023-07-29T02:29:18;94526.31;;;17.13;100.00
10946;BME280;5525;42.648;23.368;2023-07-29T02:31:46;94525.19;;;17.18;100.00
10946;BME280;5525;42.648;23.368;2023-07-29T02:34:13;94522.69;;;17.06;100.00
10946;BME280;5525;42.648;23.368;2023-07-29T02:36:40;94520.63;;;16.99;100.00
10946;BME280;5525;42.648;23.368;2023-07-29T02:39:06;94521.81;;;16.98;100.00
10946;BME280;5525;42.648;23.368;2023-07-29T02:41:33;94518.41;;;17.05;100.00
10946;BME280;5525;42.648;23.368;2023-07-29T02:44:01;94521.00;;;16.98;100.00
10946;BME280;5525;42.648;23.368;2023-07-29T02:46:28;94516.72;;;16.97;100.00
10946;BME280;5525;42.648;23.368;2023-07-29T02:48:56;94515.13;;;16.69;100.00
10946;BME280;5525;42.648;23.368;2023-07-29T02:51:22;94512.34;;;16.43;100.00
10946;BME280;5525;42.648;23.368;2023-07-29T02:53:49;94519.81;;;16.46;100.00
10946;BME280;5525;42.648;23.368;2023-07-29T02:56:16;94507.09;;;16.54;100.00
10946;BME280;5525;42.648;23.368;2023-07-29T02:58:43;94511.75;;;16.53;100.00
10946;BME280;5525;42.648;23.368;2023-07-29T03:01:10;94510.84;;;16.46;100.00
10946;BME280;5525;42.648;23.368;2023-07-29T03:03:37;94516.19;;;16.42;100.00
10946;BME280;5525;42.648;23.368;2023-07-29T03:06:06;94521.22;;;16.18;100.00
10946;BME280;5525;42.648;23.368;2023-07-29T03:08:33;94526.94;;;15.90;100.00
10946;BME280;5525;42.648;23.368;2023-07-29T03:11:05;94534.75;;;15.73;100.00
10946;BME280;5525;42.648;23.368;2023-07-29T03:13:32;94538.03;;;15.63;100.00
10946;BME280;5525;42.648;23.368;2023-07-29T03:16:04;94537.91;;;15.75;100.00
10946;BME280;5525;42.648;23.368;2023-07-29T03:18:31;94543.78;;;15.77;100.00
10946;BME280;5525;42.648;23.368;2023-07-29T03:20:58;94546.94;;;15.79;100.00
10946;BME280;5525;42.648;23.368;2023-07-29T03:23:27;94545.41;;;15.81;100.00
10946;BME280;5525;42.648;23.368;2023-07-29T03:25:54;94540.06;;;15.85;100.00
10946;BME280;5525;42.648;23.368;2023-07-29T03:28:23;94543.25;;;15.90;100.00
10946;BME280;5525;42.648;23.368;2023-07-29T03:30:50;94552.22;;;15.91;100.00
10946;BME280;5525;42.648;23.368;2023-07-29T03:33:17;94540.38;;;16.02;100.00
10946;BME280;5525;42.648;23.368;2023-07-29T03:35:43;94538.44;;;16.03;100.00
10946;BME280;5525;42.648;23.368;2023-07-29T03:38:10;94556.16;;;15.93;100.00
10946;BME280;5525;42.648;23.368;2023-07-29T03:40:38;94548.31;;;15.88;100.00
10946;BME280;5525;42.648;23.368;2023-07-29T03:43:05;94553.75;;;15.88;100.00
10946;BME280;5525;42.648;23.368;2023-07-29T03:45:32;94546.13;;;15.97;100.00
10946;BME280;5525;42.648;23.368;2023-07-29T03:47:58;94539.66;;;16.05;100.00
10946;BME280;5525;42.648;23.368;2023-07-29T03:50:25;94547.63;;;16.14;100.00
10946;BME280;5525;42.648;23.368;2023-07-29T03:52:52;94543.44;;;16.20;100.00
10946;BME280;5525;42.648;23.368;2023-07-29T03:55:19;94534.25;;;16.28;100.00
10946;BME280;5525;42.648;23.368;2023-07-29T03:57:47;94539.53;;;16.40;100.00
10946;BME280;5525;42.648;23.368;2023-07-29T04:00:14;94541.09;;;16.41;100.00
10946;BME280;5525;42.648;23.368;2023-07-29T04:02:41;94544.03;;;16.51;100.00
10946;BME280;5525;42.648;23.368;2023-07-29T04:05:08;94544.03;;;17.26;100.00
10946;BME280;5525;42.648;23.368;2023-07-29T04:07:35;94545.09;;;18.40;100.00
10946;BME280;5525;42.648;23.368;2023-07-29T04:10:03;94541.00;;;19.68;100.00
10946;BME280;5525;42.648;23.368;2023-07-29T04:12:30;94545.59;;;20.36;100.00
10946;BME280;5525;42.648;23.368;2023-07-29T04:14:59;94550.41;;;21.13;100.00
10946;BME280;5525;42.648;23.368;2023-07-29T04:17:25;94550.03;;;21.35;100.00
10946;BME280;5525;42.648;23.368;2023-07-29T04:19:52;94553.44;;;21.96;100.00
10946;BME280;5525;42.648;23.368;2023-07-29T04:22:19;94553.75;;;22.12;100.00
10946;BME280;5525;42.648;23.368;2023-07-29T04:24:46;94561.38;;;22.66;100.00
10946;BME280;5525;42.648;23.368;2023-07-29T04:27:13;94541.44;;;23.02;98.91
10946;BME280;5525;42.648;23.368;2023-07-29T04:29:40;94550.69;;;23.74;94.88
10946;BME280;5525;42.648;23.368;2023-07-29T04:32:08;94554.44;;;23.90;92.10
10946;BME280;5525;42.648;23.368;2023-07-29T04:34:34;94559.47;;;24.66;86.45
10946;BME280;5525;42.648;23.368;2023-07-29T04:37:01;94554.75;;;24.89;83.48
10946;BME280;5525;42.648;23.368;2023-07-29T04:39:27;94564.13;;;25.91;77.14
10946;BME280;5525;42.648;23.368;2023-07-29T04:41:54;94567.50;;;26.81;71.83
10946;BME280;5525;42.648;23.368;2023-07-29T04:44:22;94579.00;;;28.11;66.03
10946;BME280;5525;42.648;23.368;2023-07-29T04:46:49;94577.09;;;29.44;59.42
10946;BME280;5525;42.648;23.368;2023-07-29T04:49:17;94570.81;;;29.52;53.09
10946;BME280;5525;42.648;23.368;2023-07-29T04:51:43;94571.94;;;28.51;60.16
10946;BME280;5525;42.648;23.368;2023-07-29T04:54:10;94580.16;;;29.58;55.47
10946;BME280;5525;42.648;23.368;2023-07-29T04:56:37;94586.06;;;30.54;51.86
10946;BME280;5525;42.648;23.368;2023-07-29T04:59:03;94586.25;;;28.78;57.55
10946;BME280;5525;42.648;23.368;2023-07-29T05:01:30;94589.56;;;29.27;53.76
10946;BME280;5525;42.648;23.368;2023-07-29T05:03:57;94590.53;;;30.94;48.05
10946;BME280;5525;42.648;23.368;2023-07-29T05:06:25;94593.56;;;31.79;44.82
10946;BME280;5525;42.648;23.368;2023-07-29T05:08:51;94597.56;;;32.63;42.25
10946;BME280;5525;42.648;23.368;2023-07-29T05:11:18;94608.66;;;33.86;38.28
10946;BME280;5525;42.648;23.368;2023-07-29T05:13:45;94601.09;;;34.24;37.50
10946;BME280;5525;42.648;23.368;2023-07-29T05:16:11;94609.28;;;34.61;36.17
10946;BME280;5525;42.648;23.368;2023-07-29T05:18:38;94608.72;;;34.71;35.22
10946;BME280;5525;42.648;23.368;2023-07-29T05:21:05;94608.22;;;34.58;35.29
10946;BME280;5525;42.648;23.368;2023-07-29T05:23:33;94616.91;;;35.13;34.04
10946;BME280;5525;42.648;23.368;2023-07-29T05:25:59;94613.44;;;35.03;33.75
10946;BME280;5525;42.648;23.368;2023-07-29T05:28:26;94619.84;;;35.62;32.73
10946;BME280;5525;42.648;23.368;2023-07-29T05:30:52;94619.53;;;35.02;33.75
10946;BME280;5525;42.648;23.368;2023-07-29T05:33:19;94622.81;;;36.22;31.82
10946;BME280;5525;42.648;23.368;2023-07-29T05:35:46;94629.03;;;35.92;31.85
10946;BME280;5525;42.648;23.368;2023-07-29T05:38:12;94623.09;;;36.24;30.99
10946;BME280;5525;42.648;23.368;2023-07-29T05:40:40;94623.59;;;37.03;30.30
10946;BME280;5525;42.648;23.368;2023-07-29T05:43:07;94624.69;;;37.31;28.95
10946;BME280;5525;42.648;23.368;2023-07-29T05:45:34;94630.94;;;36.55;29.76
10946;BME280;5525;42.648;23.368;2023-07-29T05:48:00;94628.56;;;37.90;28.90
10946;BME280;5525;42.648;23.368;2023-07-29T05:50:27;94637.22;;;38.60;27.79
10946;BME280;5525;42.648;23.368;2023-07-29T05:52:54;94642.34;;;39.37;26.24
10946;BME280;5525;42.648;23.368;2023-07-29T05:55:20;94634.47;;;39.52;26.01
10946;BME280;5525;42.648;23.368;2023-07-29T05:57:48;94631.56;;;39.35;26.03
10946;BME280;5525;42.648;23.368;2023-07-29T06:00:15;94636.25;;;39.66;25.83
10946;BME280;5525;42.648;23.368;2023-07-29T06:02:42;94628.06;;;38.34;26.72
10946;BME280;5525;42.648;23.368;2023-07-29T06:05:08;94626.41;;;37.80;27.87
10946;BME280;5525;42.648;23.368;2023-07-29T06:07:35;94621.03;;;37.82;27.70
10946;BME280;5525;42.648;23.368;2023-07-29T06:10:02;94627.13;;;36.03;29.83
10946;BME280;5525;42.648;23.368;2023-07-29T06:12:29;94623.69;;;35.06;31.73
10946;BME280;5525;42.648;23.368;2023-07-29T06:14:57;94623.72;;;37.14;29.63
10946;BME280;5525;42.648;23.368;2023-07-29T06:17:23;94628.28;;;38.67;27.35
10946;BME280;5525;42.648;23.368;2023-07-29T06:19:50;94626.25;;;39.92;25.97
10946;BME280;5525;42.648;23.368;2023-07-29T06:22:17;94627.28;;;41.48;24.04
10946;BME280;5525;42.648;23.368;2023-07-29T06:24:43;94618.94;;;38.50;26.93
10946;BME280;5525;42.648;23.368;2023-07-29T06:27:10;94610.00;;;40.37;25.00
10946;BME280;5525;42.648;23.368;2023-07-29T06:29:37;94614.41;;;40.27;25.30
10946;BME280;5525;42.648;23.368;2023-07-29T06:32:06;94621.59;;;41.13;24.18
10946;BME280;5525;42.648;23.368;2023-07-29T06:34:32;94624.06;;;41.27;23.74
10946;BME280;5525;42.648;23.368;2023-07-29T06:36:59;94618.53;;;42.16;22.81
10946;BME280;5525;42.648;23.368;2023-07-29T06:39:26;94618.91;;;42.31;22.08
10946;BME280;5525;42.648;23.368;2023-07-29T06:41:52;94606.78;;;41.71;22.88
10946;BME280;5525;42.648;23.368;2023-07-29T06:44:19;94611.34;;;43.24;21.36
10946;BME280;5525;42.648;23.368;2023-07-29T06:46:46;94608.59;;;42.28;22.05
10946;BME280;5525;42.648;23.368;2023-07-29T06:49:14;94601.25;;;43.79;20.84
10946;BME280;5525;42.648;23.368;2023-07-29T06:51:41;94611.69;;;44.47;20.20
10946;BME280;5525;42.648;23.368;2023-07-29T06:54:08;94613.38;;;44.56;19.82
10946;BME280;5525;42.648;23.368;2023-07-29T06:56:34;94603.69;;;42.29;20.94
10946;BME280;5525;42.648;23.368;2023-07-29T06:59:01;94605.09;;;43.07;21.06
10946;BME280;5525;42.648;23.368;2023-07-29T07:01:27;94602.94;;;42.76;21.12
10946;BME280;5525;42.648;23.368;2023-07-29T07:03:54;94598.78;;;42.05;21.80
10946;BME280;5525;42.648;23.368;2023-07-29T07:06:25;94606.34;;;43.12;20.85
10946;BME280;5525;42.648;23.368;2023-07-29T07:08:51;94596.09;;;44.09;19.97
10946;BME280;5525;42.648;23.368;2023-07-29T07:11:18;94606.03;;;43.71;20.35
10946;BME280;5525;42.648;23.368;2023-07-29T07:13:45;94612.03;;;44.31;19.64
10946;BME280;5525;42.648;23.368;2023-07-29T07:16:12;94595.38;;;40.00;23.23
10946;BME280;5525;42.648;23.368;2023-07-29T07:18:38;94593.38;;;42.31;21.36
10946;BME280;5525;42.648;23.368;2023-07-29T07:21:05;94596.00;;;42.24;21.90
10946;BME280;5525;42.648;23.368;2023-07-29T07:23:33;94602.47;;;43.84;20.76
10946;BME280;5525;42.648;23.368;2023-07-29T07:26:00;94614.81;;;44.89;19.53
10946;BME280;5525;42.648;23.368;2023-07-29T07:28:26;94606.81;;;44.74;19.47
10946;BME280;5525;42.648;23.368;2023-07-29T07:30:53;94590.72;;;41.04;22.12
10946;BME280;5525;42.648;23.368;2023-07-29T07:33:21;94593.22;;;41.18;22.84
10946;BME280;5525;42.648;23.368;2023-07-29T07:35:48;94599.66;;;43.97;20.53
10946;BME280;5525;42.648;23.368;2023-07-29T07:38:15;94593.78;;;43.95;20.78
10946;BME280;5525;42.648;23.368;2023-07-29T07:40:52;94591.66;;;43.45;20.78
10946;BME280;5525;42.648;23.368;2023-07-29T07:43:19;94589.25;;;44.44;19.52
10946;BME280;5525;42.648;23.368;2023-07-29T07:45:46;94592.38;;;43.51;20.20
10946;BME280;5525;42.648;23.368;2023-07-29T07:48:13;94603.84;;;44.66;19.71
10946;BME280;5525;42.648;23.368;2023-07-29T07:50:39;94594.41;;;43.69;20.39
10946;BME280;5525;42.648;23.368;2023-07-29T07:53:06;94602.06;;;45.62;18.50
10946;BME280;5525;42.648;23.368;2023-07-29T07:55:33;94594.41;;;46.40;17.72
10946;BME280;5525;42.648;23.368;2023-07-29T07:58:01;94592.34;;;44.01;19.41
10946;BME280;5525;42.648;23.368;2023-07-29T08:00:27;94594.50;;;43.95;19.28
10946;BME280;5525;42.648;23.368;2023-07-29T08:02:54;94599.38;;;44.84;18.83
10946;BME280;5525;42.648;23.368;2023-07-29T08:05:20;94596.31;;;45.29;18.78
10946;BME280;5525;42.648;23.368;2023-07-29T08:07:47;94598.38;;;45.75;18.55
10946;BME280;5525;42.648;23.368;2023-07-29T08:10:14;94598.56;;;46.87;17.47
10946;BME280;5525;42.648;23.368;2023-07-29T08:12:40;94594.03;;;46.15;17.48
10946;BME280;5525;42.648;23.368;2023-07-29T08:15:09;94603.00;;;45.98;17.74
10946;BME280;5525;42.648;23.368;2023-07-29T08:17:35;94605.66;;;46.66;17.60
10946;BME280;5525;42.648;23.368;2023-07-29T08:20:02;94609.06;;;47.63;16.13
10946;BME280;5525;42.648;23.368;2023-07-29T08:22:29;94604.41;;;48.34;16.07
10946;BME280;5525;42.648;23.368;2023-07-29T08:24:56;94598.22;;;47.26;16.74
10946;BME280;5525;42.648;23.368;2023-07-29T08:27:22;94605.53;;;46.99;16.54
10946;BME280;5525;42.648;23.368;2023-07-29T08:29:49;94592.88;;;44.84;18.35
10946;BME280;5525;42.648;23.368;2023-07-29T08:32:17;94599.53;;;43.58;18.98
10946;BME280;5525;42.648;23.368;2023-07-29T08:34:44;94582.13;;;41.91;20.38
10946;BME280;5525;42.648;23.368;2023-07-29T08:37:10;94584.44;;;44.52;18.59
10946;BME280;5525;42.648;23.368;2023-07-29T08:39:37;94592.56;;;45.34;17.69
10946;BME280;5525;42.648;23.368;2023-07-29T08:42:04;94589.88;;;47.00;16.46
10946;BME280;5525;42.648;23.368;2023-07-29T08:44:36;94586.81;;;46.42;17.01
10946;BME280;5525;42.648;23.368;2023-07-29T08:47:06;94584.75;;;44.35;17.67
10946;BME280;5525;42.648;23.368;2023-07-29T08:49:35;94574.03;;;42.00;18.75
10946;BME280;5525;42.648;23.368;2023-07-29T08:52:04;94571.28;;;43.41;18.31
10946;BME280;5525;42.648;23.368;2023-07-29T08:54:31;94570.69;;;42.92;18.53
10946;BME280;5525;42.648;23.368;2023-07-29T08:56:57;94566.34;;;43.10;18.24
10946;BME280;5525;42.648;23.368;2023-07-29T08:59:25;94557.44;;;41.80;19.37
10946;BME280;5525;42.648;23.368;2023-07-29T09:01:53;94565.53;;;43.65;17.92
10946;BME280;5525;42.648;23.368;2023-07-29T09:04:21;94564.75;;;45.27;16.28
10946;BME280;5525;42.648;23.368;2023-07-29T09:06:50;94568.19;;;44.99;16.39
10946;BME280;5525;42.648;23.368;2023-07-29T09:09:17;94568.13;;;46.13;16.22
10946;BME280;5525;42.648;23.368;2023-07-29T09:11:44;94571.47;;;47.16;15.47
10946;BME280;5525;42.648;23.368;2023-07-29T09:14:11;94569.16;;;46.23;15.68
10946;BME280;5525;42.648;23.368;2023-07-29T09:16:38;94565.03;;;45.70;15.59
10946;BME280;5525;42.648;23.368;2023-07-29T09:19:05;94550.59;;;46.65;15.54
10946;BME280;5525;42.648;23.368;2023-07-29T09:21:32;94560.59;;;46.79;14.23
10946;BME280;5525;42.648;23.368;2023-07-29T09:24:04;94558.69;;;47.17;14.07
10946;BME280;5525;42.648;23.368;2023-07-29T09:26:32;94552.44;;;48.37;13.99
10946;BME280;5525;42.648;23.368;2023-07-29T09:29:00;94528.78;;;45.24;16.28
10946;BME280;5525;42.648;23.368;2023-07-29T09:31:28;94546.69;;;48.52;14.38
10946;BME280;5525;42.648;23.368;2023-07-29T09:33:56;94540.03;;;48.27;14.48
10946;BME280;5525;42.648;23.368;2023-07-29T09:36:23;94542.84;;;48.72;14.18
10946;BME280;5525;42.648;23.368;2023-07-29T09:38:52;94539.78;;;48.63;13.89
10946;BME280;5525;42.648;23.368;2023-07-29T09:41:23;94546.41;;;49.43;13.53
10946;BME280;5525;42.648;23.368;2023-07-29T09:43:55;94535.41;;;48.62;13.72
10946;BME280;5525;42.648;23.368;2023-07-29T09:46:23;94537.31;;;47.77;14.56
10946;BME280;5525;42.648;23.368;2023-07-29T09:48:53;94536.19;;;48.62;13.68
10946;BME280;5525;42.648;23.368;2023-07-29T09:51:20;94528.56;;;48.05;13.70
10946;BME280;5525;42.648;23.368;2023-07-29T09:53:47;94534.81;;;48.56;12.83
10946;BME280;5525;42.648;23.368;2023-07-29T09:56:14;94534.31;;;49.52;13.06
10946;BME280;5525;42.648;23.368;2023-07-29T09:58:44;94534.72;;;49.08;13.20
10946;BME280;5525;42.648;23.368;2023-07-29T10:01:12;94523.75;;;48.45;13.27
10946;BME280;5525;42.648;23.368;2023-07-29T10:03:39;94523.78;;;48.00;13.75
10946;BME280;5525;42.648;23.368;2023-07-29T10:06:08;94522.16;;;47.38;14.39
10946;BME280;5525;42.648;23.368;2023-07-29T10:08:34;94508.50;;;48.05;14.03
10946;BME280;5525;42.648;23.368;2023-07-29T10:11:05;94516.50;;;47.03;14.00
10946;BME280;5525;42.648;23.368;2023-07-29T10:13:32;94505.84;;;46.68;14.37
10946;BME280;5525;42.648;23.368;2023-07-29T10:16:00;94511.50;;;48.52;13.99
10946;BME280;5525;42.648;23.368;2023-07-29T10:18:28;94509.06;;;47.81;13.73
10946;BME280;5525;42.648;23.368;2023-07-29T10:20:57;94501.16;;;47.28;14.23
10946;BME280;5525;42.648;23.368;2023-07-29T10:23:25;94498.13;;;47.49;14.12
10946;BME280;5525;42.648;23.368;2023-07-29T10:25:55;94490.69;;;47.38;14.21
10946;BME280;5525;42.648;23.368;2023-07-29T10:28:25;94476.84;;;46.99;14.45
10946;BME280;5525;42.648;23.368;2023-07-29T10:30:53;94470.19;;;45.56;14.93
10946;BME280;5525;42.648;23.368;2023-07-29T10:33:22;94472.13;;;44.21;15.93
10946;BME280;5525;42.648;23.368;2023-07-29T10:35:50;94465.50;;;44.92;15.63
10946;BME280;5525;42.648;23.368;2023-07-29T10:38:17;94458.63;;;43.38;16.48
10946;BME280;5525;42.648;23.368;2023-07-29T10:40:46;94444.56;;;45.64;14.77
10946;BME280;5525;42.648;23.368;2023-07-29T10:43:19;94459.22;;;45.06;15.06
10946;BME280;5525;42.648;23.368;2023-07-29T10:45:46;94468.78;;;48.16;13.78
10946;BME280;5525;42.648;23.368;2023-07-29T10:48:13;94460.19;;;46.47;14.36
10946;BME280;5525;42.648;23.368;2023-07-29T10:51:26;94452.75;;;46.87;13.94
10946;BME280;5525;42.648;23.368;2023-07-29T10:53:55;94453.69;;;48.31;13.36
10946;BME280;5525;42.648;23.368;2023-07-29T10:56:30;94449.47;;;47.26;14.05
10946;BME280;5525;42.648;23.368;2023-07-29T10:59:22;94452.19;;;47.62;13.72
10946;BME280;5525;42.648;23.368;2023-07-29T11:01:51;94440.06;;;47.11;13.61
10946;BME280;5525;42.648;23.368;2023-07-29T11:04:25;94444.72;;;47.89;13.32
10946;BME280;5525;42.648;23.368;2023-07-29T11:07:19;94439.38;;;47.78;13.47
10946;BME280;5525;42.648;23.368;2023-07-29T11:09:54;94428.13;;;47.88;13.42
10946;BME280;5525;42.648;23.368;2023-07-29T11:12:38;94432.72;;;46.80;13.76
10946;BME280;5525;42.648;23.368;2023-07-29T11:15:13;94423.25;;;46.49;14.17
10946;BME280;5525;42.648;23.368;2023-07-29T11:17:41;94423.75;;;45.76;14.42
10946;BME280;5525;42.648;23.368;2023-07-29T11:20:09;94423.41;;;45.18;14.62
10946;BME280;5525;42.648;23.368;2023-07-29T11:22:38;94421.03;;;44.76;14.76
10946;BME280;5525;42.648;23.368;2023-07-29T11:25:07;94419.34;;;43.81;15.53
10946;BME280;5525;42.648;23.368;2023-07-29T11:27:34;94413.81;;;40.94;17.34
10946;BME280;5525;42.648;23.368;2023-07-29T11:30:03;94409.63;;;43.00;15.83
10946;BME280;5525;42.648;23.368;2023-07-29T11:32:31;94417.38;;;43.76;15.41
10946;BME280;5525;42.648;23.368;2023-07-29T11:35:01;94407.03;;;43.02;16.20
10946;BME280;5525;42.648;23.368;2023-07-29T11:37:29;94405.13;;;41.51;16.84
10946;BME280;5525;42.648;23.368;2023-07-29T11:39:57;94405.69;;;42.72;15.98
10946;BME280;5525;42.648;23.368;2023-07-29T11:42:26;94394.88;;;41.91;16.74
10946;BME280;5525;42.648;23.368;2023-07-29T11:44:56;94394.22;;;42.03;17.59
10946;BME280;5525;42.648;23.368;2023-07-29T11:47:22;94391.66;;;41.81;16.59
10946;BME280;5525;42.648;23.368;2023-07-29T11:49:49;94389.22;;;41.13;16.78
10946;BME280;5525;42.648;23.368;2023-07-29T11:52:16;94378.78;;;40.15;18.12
10946;BME280;5525;42.648;23.368;2023-07-29T11:54:44;94377.81;;;39.17;18.75
10946;BME280;5525;42.648;23.368;2023-07-29T11:57:13;94383.22;;;39.04;19.11
10946;BME280;5525;42.648;23.368;2023-07-29T11:59:40;94378.09;;;39.03;19.08
10946;BME280;5525;42.648;23.368;2023-07-29T12:02:10;94378.84;;;38.81;19.30
10946;BME280;5525;42.648;23.368;2023-07-29T12:04:37;94366.09;;;37.41;20.51
10946;BME280;5525;42.648;23.368;2023-07-29T12:07:05;94364.66;;;36.01;22.40
10946;BME280;5525;42.648;23.368;2023-07-29T12:09:33;94359.59;;;35.85;22.32
10946;BME280;5525;42.648;23.368;2023-07-29T12:12:01;94356.88;;;34.95;22.97
10946;BME280;5525;42.648;23.368;2023-07-29T12:14:30;94352.28;;;34.34;23.53
10946;BME280;5525;42.648;23.368;2023-07-29T12:17:00;94347.16;;;34.33;24.12
10946;BME280;5525;42.648;23.368;2023-07-29T12:19:31;94352.75;;;34.33;24.36
10946;BME280;5525;42.648;23.368;2023-07-29T12:21:58;94347.94;;;34.04;24.23
10946;BME280;5525;42.648;23.368;2023-07-29T12:24:25;94340.56;;;33.54;24.58
10946;BME280;5525;42.648;23.368;2023-07-29T12:26:52;94347.97;;;33.80;24.92
10946;BME280;5525;42.648;23.368;2023-07-29T12:29:19;94337.84;;;33.21;24.97
10946;BME280;5525;42.648;23.368;2023-07-29T12:31:47;94344.47;;;33.56;24.65
10946;BME280;5525;42.648;23.368;2023-07-29T12:34:18;94338.94;;;33.47;24.60
10946;BME280;5525;42.648;23.368;2023-07-29T12:36:46;94334.44;;;33.64;24.62
10946;BME280;5525;42.648;23.368;2023-07-29T12:39:17;94339.47;;;33.75;24.43
10946;BME280;5525;42.648;23.368;2023-07-29T12:41:44;94340.28;;;34.04;24.20
10946;BME280;5525;42.648;23.368;2023-07-29T12:44:11;94341.25;;;34.01;24.10
10946;BME280;5525;42.648;23.368;2023-07-29T12:46:38;94336.94;;;34.44;23.77
10946;BME280;5525;42.648;23.368;2023-07-29T12:49:06;94338.66;;;34.12;23.46
10946;BME280;5525;42.648;23.368;2023-07-29T12:51:33;94327.94;;;33.58;24.13
10946;BME280;5525;42.648;23.368;2023-07-29T12:54:01;94329.66;;;33.32;24.19
10946;BME280;5525;42.648;23.368;2023-07-29T12:56:29;94329.13;;;33.66;24.82
10946;BME280;5525;42.648;23.368;2023-07-29T12:58:56;94334.59;;;33.99;23.92
10946;BME280;5525;42.648;23.368;2023-07-29T13:01:23;94324.28;;;33.81;24.08